Time;durP1;ratioP1;P1;durP2;ratioP2;P2;SDS_P1;SDS_P2;PMS_P1;PMS_P2;Temp;Humidity;BMP_temperature;BMP_pressure;BME280_temperature;BME280_humidity;BME280_pressure;Samples;Min_cycle;Max_cycle;Signal;HPM_P1;HPM_P2
2023/09/19 00:01:22;;;;;;;21.70;15.40;;;;;;;12.08;100.00;101567.66;104909;1271;61658;-73
2023/09/19 00:03:49;;;;;;;17.20;14.40;;;;;;;12.04;100.00;101566.13;104956;1271;59341;-71
2023/09/19 00:06:17;;;;;;;24.40;16.30;;;;;;;12.00;100.00;101566.13;104831;1271;72040;-70
2023/09/19 00:08:44;;;;;;;17.30;14.30;;;;;;;11.97;100.00;101562.94;104789;1271;62692;-69
2023/09/19 00:11:12;;;;;;;20.70;16.00;;;;;;;11.97;100.00;101563.33;104791;1271;72689;-70
2023/09/19 00:13:39;;;;;;;18.70;14.50;;;;;;;11.95;100.00;101565.14;104835;1263;237293;-72
2023/09/19 00:16:10;;;;;;;18.10;15.60;;;;;;;11.94;100.00;101567.48;104965;1262;59341;-69
2023/09/19 00:18:38;;;;;;;18.60;15.50;;;;;;;11.93;100.00;101566.71;105559;1258;71022;-69
2023/09/19 00:21:07;;;;;;;18.90;15.40;;;;;;;11.90;100.00;101565.29;105603;1258;63895;-68
2023/09/19 00:23:34;;;;;;;17.20;15.10;;;;;;;11.86;100.00;101564.40;105533;1259;72755;-70
2023/09/19 00:26:03;;;;;;;19.60;16.50;;;;;;;11.82;100.00;101565.22;105557;1257;60491;-69
2023/09/19 00:28:31;;;;;;;20.10;15.50;;;;;;;11.81;100.00;101564.98;105643;1253;59545;-69
2023/09/19 00:31:01;;;;;;;21.00;16.60;;;;;;;11.78;100.00;101562.45;105637;1259;72978;-69
2023/09/19 00:33:31;;;;;;;24.40;16.10;;;;;;;11.76;100.00;101563.30;105723;1253;62571;-72
2023/09/19 00:35:59;;;;;;;17.70;15.30;;;;;;;11.73;100.00;101567.30;105673;1257;71458;-70
2023/09/19 00:38:26;;;;;;;17.90;16.00;;;;;;;11.69;100.00;101563.99;105472;1253;62510;-70
2023/09/19 00:40:56;;;;;;;20.70;16.30;;;;;;;11.66;100.00;101561.52;105441;1260;59555;-72
2023/09/19 00:43:27;;;;;;;19.50;14.70;;;;;;;11.64;100.00;101558.98;105605;1253;73138;-71
2023/09/19 00:45:55;;;;;;;19.00;16.70;;;;;;;11.62;100.00;101560.66;105423;1259;63785;-72
2023/09/19 00:48:24;;;;;;;20.40;15.80;;;;;;;11.58;100.00;101558.54;105468;1259;73116;-72
2023/09/19 00:50:53;;;;;;;17.90;15.70;;;;;;;11.57;100.00;101556.19;105669;1253;61726;-73
2023/09/19 00:53:22;;;;;;;18.20;15.10;;;;;;;11.56;100.00;101554.29;105658;1253;59552;-72
2023/09/19 00:55:51;;;;;;;18.90;16.00;;;;;;;11.54;100.00;101556.83;105513;1258;73150;-72
2023/09/19 00:58:18;;;;;;;18.00;16.10;;;;;;;11.51;100.00;101549.81;105732;1253;63061;-70
2023/09/19 01:00:49;;;;;;;19.20;15.00;;;;;;;11.49;100.00;101552.02;105591;1258;71389;-74
2023/09/19 01:03:18;;;;;;;19.40;16.60;;;;;;;11.45;100.00;101550.61;105539;1254;60912;-70
2023/09/19 01:05:46;;;;;;;17.40;15.50;;;;;;;11.42;100.00;101546.55;105636;1257;59638;-71
2023/09/19 01:08:13;;;;;;;21.80;15.90;;;;;;;11.38;100.00;101544.30;105415;1258;73113;-74
2023/09/19 01:10:52;;;;;;;21.20;16.40;;;;;;;11.36;100.00;101547.91;105631;1259;63156;-72
2023/09/19 01:13:41;;;;;;;18.70;16.70;;;;;;;11.34;100.00;101544.70;105511;1254;72590;-69
2023/09/19 01:16:39;;;;;;;20.70;15.90;;;;;;;11.35;100.00;101543.42;105750;1253;61649;-71
2023/09/19 01:19:33;;;;;;;19.70;16.50;;;;;;;11.34;100.00;101545.71;105477;1254;59574;-70
2023/09/19 01:22:10;;;;;;;20.00;15.70;;;;;;;11.32;100.00;101545.10;105634;1253;73045;-71
2023/09/19 01:25:20;;;;;;;20.70;16.00;;;;;;;11.31;100.00;101543.25;105565;1253;61902;-71
2023/09/19 01:28:30;;;;;;;18.50;15.10;;;;;;;11.28;100.00;101544.80;105155;1262;71530;-70
2023/09/19 01:30:58;;;;;;;23.10;16.50;;;;;;;11.25;100.00;101546.34;104667;1268;61897;-70
2023/09/19 01:33:27;;;;;;;18.50;15.70;;;;;;;11.23;100.00;101548.52;104495;1269;59630;-72
2023/09/19 01:35:58;;;;;;;22.50;15.60;;;;;;;11.20;100.00;101546.92;104780;1267;73137;-71
2023/09/19 01:38:27;;;;;;;21.60;17.10;;;;;;;11.17;100.00;101551.61;104822;1265;62597;-71
2023/09/19 01:41:03;;;;;;;19.30;17.20;;;;;;;11.15;100.00;101547.30;104859;1269;72643;-74
2023/09/19 01:43:33;;;;;;;18.30;15.60;;;;;;;11.14;100.00;101547.36;104688;1265;61739;-73
2023/09/19 01:46:14;;;;;;;21.10;17.30;;;;;;;11.14;100.00;101545.13;104877;1264;60079;-71
2023/09/19 01:48:49;;;;;;;18.00;15.30;;;;;;;11.12;100.00;101548.14;104758;1265;71866;-71
2023/09/19 01:51:21;;;;;;;21.40;15.60;;;;;;;11.11;100.00;101546.32;104823;1269;63574;-71
2023/09/19 01:53:56;;;;;;;23.20;16.80;;;;;;;11.11;100.00;101544.05;104883;1265;72845;-71
2023/09/19 01:56:35;;;;;;;24.20;17.10;;;;;;;11.11;100.00;101538.05;104837;1264;62176;-73
2023/09/19 01:59:09;;;;;;;26.90;18.00;;;;;;;11.13;100.00;101537.98;104611;1273;59687;-71
2023/09/19 02:01:37;;;;;;;;;;;;;;;11.11;100.00;101533.32;104777;1270;73610;-69
2023/09/19 02:04:05;;;;;;;24.00;17.90;;;;;;;11.10;100.00;101532.55;104969;1259;62640;-72
2023/09/19 02:06:33;;;;;;;20.10;17.80;;;;;;;11.08;100.00;101534.73;105083;1259;72819;-70
2023/09/19 02:09:02;;;;;;;22.80;18.30;;;;;;;11.05;100.00;101535.73;105637;1251;61704;-71
2023/09/19 02:11:29;;;;;;;21.30;16.80;;;;;;;11.03;100.00;101535.33;105640;1253;60002;-70
2023/09/19 02:13:57;;;;;;;20.80;16.70;;;;;;;10.99;100.00;101534.80;105711;1253;73058;-72
2023/09/19 02:16:25;;;;;;;21.70;17.00;;;;;;;10.95;100.00;101529.52;105642;1262;62507;-71
2023/09/19 02:18:53;;;;;;;23.80;18.40;;;;;;;10.93;100.00;101527.89;105751;1257;72810;-71
2023/09/19 02:21:21;;;;;;;25.50;18.80;;;;;;;10.91;100.00;101528.16;105605;1258;60449;-71
2023/09/19 02:23:49;;;;;;;23.50;18.20;;;;;;;10.90;100.00;101529.42;105636;1251;59636;-72
2023/09/19 02:26:16;;;;;;;26.30;17.70;;;;;;;10.90;100.00;101528.56;105693;1257;73007;-71
2023/09/19 02:28:45;;;;;;;18.60;16.00;;;;;;;10.90;100.00;101528.58;105647;1257;61958;-73
2023/09/19 02:31:13;;;;;;;30.40;18.70;;;;;;;10.90;100.00;101527.52;105736;1267;72661;-71
2023/09/19 02:33:42;;;;;;;24.70;18.90;;;;;;;10.90;100.00;101525.39;105696;1253;60445;-74
2023/09/19 02:36:10;;;;;;;25.70;19.30;;;;;;;10.90;100.00;101526.48;105906;1259;59722;-73
2023/09/19 02:38:37;;;;;;;27.10;21.10;;;;;;;10.88;100.00;101528.32;105912;1257;73131;-71
2023/09/19 02:41:05;;;;;;;27.50;19.20;;;;;;;10.86;100.00;101529.96;105740;1254;63377;-72
2023/09/19 02:43:33;;;;;;;26.80;19.70;;;;;;;10.85;100.00;101532.11;105769;1258;72846;-70
2023/09/19 02:46:02;;;;;;;26.40;19.70;;;;;;;10.82;100.00;101529.09;105793;1258;61736;-71
2023/09/19 02:48:32;;;;;;;25.00;21.10;;;;;;;10.81;100.00;101534.09;105698;1256;59979;-70
2023/09/19 02:51:00;;;;;;;23.50;19.10;;;;;;;10.79;100.00;101538.50;105756;1254;73048;-71
2023/09/19 02:53:27;;;;;;;22.80;19.80;;;;;;;10.77;100.00;101538.41;105784;1256;61426;-70
2023/09/19 02:55:55;;;;;;;25.70;20.10;;;;;;;10.76;100.00;101541.46;105728;1254;73349;-72
2023/09/19 02:58:25;;;;;;;22.50;20.20;;;;;;;10.74;100.00;101540.67;105799;1258;61939;-72
2023/09/19 03:00:52;;;;;;;24.80;19.70;;;;;;;10.72;100.00;101545.48;105727;1257;59640;-72
2023/09/19 03:03:20;;;;;;;25.40;19.70;;;;;;;10.70;100.00;101544.52;105687;1259;73092;-73
2023/09/19 03:05:47;;;;;;;28.30;21.90;;;;;;;10.67;100.00;101541.67;105642;1251;62710;-73
2023/09/19 03:08:18;;;;;;;34.30;26.30;;;;;;;10.67;100.00;101546.77;105722;1259;71443;-72
2023/09/19 03:10:47;;;;;;;26.70;22.40;;;;;;;10.66;100.00;101547.86;105791;1256;62140;-72
2023/09/19 03:13:15;;;;;;;25.80;21.50;;;;;;;10.64;100.00;101549.15;105836;1253;59686;-70
2023/09/19 03:15:50;;;;;;;26.70;21.20;;;;;;;10.63;100.00;101549.93;105830;1251;72393;-73
2023/09/19 03:18:23;;;;;;;27.00;20.60;;;;;;;10.62;100.00;101548.90;105807;1251;62538;-72
2023/09/19 03:20:54;;;;;;;30.90;22.00;;;;;;;10.63;100.00;101551.68;105418;1260;71492;-74
2023/09/19 03:23:23;;;;;;;24.80;21.10;;;;;;;10.62;100.00;101554.14;105657;1258;61775;-72
2023/09/19 03:25:52;;;;;;;23.90;19.80;;;;;;;10.62;100.00;101556.60;105630;1251;60038;-72
2023/09/19 03:28:21;;;;;;;27.90;21.20;;;;;;;10.62;100.00;101559.23;105660;1259;73321;-73
2023/09/19 03:31:03;;;;;;;33.30;22.20;;;;;;;10.61;100.00;101561.54;105693;1257;63817;-72
2023/09/19 03:33:34;;;;;;;32.60;20.90;;;;;;;10.61;100.00;101555.96;105679;1258;70602;-74
2023/09/19 03:36:04;;;;;;;27.60;20.70;;;;;;;10.61;100.00;101560.70;105725;1256;61796;-74
2023/09/19 03:38:34;;;;;;;28.30;21.30;;;;;;;10.61;100.00;101560.88;105722;1252;60204;-71
2023/09/19 03:41:02;;;;;;;27.70;20.60;;;;;;;10.58;100.00;101560.61;105741;1259;71778;-74
2023/09/19 03:43:30;;;;;;;28.00;21.50;;;;;;;10.57;100.00;101562.95;105749;1251;62398;-72
2023/09/19 03:46:02;;;;;;;33.40;24.40;;;;;;;10.56;100.00;101563.67;105712;1252;72533;-74
2023/09/19 03:48:30;;;;;;;36.40;25.80;;;;;;;10.55;100.00;101562.66;105620;1259;60491;-75
2023/09/19 03:50:58;;;;;;;33.10;25.50;;;;;;;10.55;100.00;101561.30;105677;1251;59987;-72
2023/09/19 03:53:26;;;;;;;36.20;27.80;;;;;;;10.55;100.00;101562.16;105665;1260;72771;-73
2023/09/19 03:55:54;;;;;;;32.60;28.50;;;;;;;10.55;100.00;101559.73;105858;1256;63220;-75
2023/09/19 03:58:22;;;;;;;42.80;31.00;;;;;;;10.55;100.00;101561.61;105659;1256;71458;-72
2023/09/19 04:00:50;;;;;;;38.40;30.50;;;;;;;10.57;100.00;101561.89;105732;1258;61938;-73
2023/09/19 04:03:20;;;;;;;42.90;31.30;;;;;;;10.59;100.00;101565.48;105847;1256;60091;-73
2023/09/19 04:05:48;;;;;;;44.90;31.80;;;;;;;10.62;100.00;101564.13;105751;1251;72868;-72
2023/09/19 04:08:16;;;;;;;40.30;32.20;;;;;;;10.65;100.00;101564.35;105616;1267;63815;-72
2023/09/19 04:10:43;;;;;;;39.30;32.90;;;;;;;10.68;100.00;101564.90;105510;1258;72666;-73
2023/09/19 04:13:11;;;;;;;39.70;34.30;;;;;;;10.72;100.00;101565.06;105644;1259;60528;-73
2023/09/19 04:15:40;;;;;;;42.00;34.80;;;;;;;10.77;100.00;101563.96;105707;1257;60349;-72
2023/09/19 04:18:08;;;;;;;41.00;30.70;;;;;;;10.82;100.00;101567.25;105672;1256;74077;-72
2023/09/19 04:20:36;;;;;;;47.50;33.00;;;;;;;10.88;100.00;101568.03;105827;1252;63220;-74
2023/09/19 04:23:05;;;;;;;45.20;32.70;;;;;;;10.93;100.00;101563.43;105548;1258;72032;-72
2023/09/19 04:25:33;;;;;;;43.10;33.80;;;;;;;10.97;100.00;101568.11;105682;1256;61712;-73
2023/09/19 04:28:00;;;;;;;46.60;30.50;;;;;;;11.02;100.00;101562.67;105790;1251;60494;-71
2023/09/19 04:30:28;;;;;;;37.70;30.30;;;;;;;11.07;100.00;101559.43;105858;1256;73782;-73
2023/09/19 04:32:55;;;;;;;39.30;29.20;;;;;;;11.13;100.00;101558.83;105709;1258;62347;-73
2023/09/19 04:35:23;;;;;;;36.60;27.70;;;;;;;11.20;100.00;101554.98;105599;1256;71292;-72
2023/09/19 04:37:50;;;;;;;40.70;30.00;;;;;;;11.27;100.00;101556.59;105844;1260;60517;-71
2023/09/19 04:40:19;;;;;;;44.00;27.50;;;;;;;11.35;100.00;101558.48;105859;1251;60536;-71
2023/09/19 04:42:56;;;;;;;46.30;29.10;;;;;;;11.42;100.00;101557.61;109452;1251;72000;-70
2023/09/19 04:45:27;;;;;;;43.60;27.80;;;;;;;11.50;100.00;101557.21;106456;1257;63705;-71
2023/09/19 04:47:56;;;;;;;42.60;30.30;;;;;;;11.59;100.00;101558.89;105657;1257;71086;-71
2023/09/19 04:50:27;;;;;;;46.30;28.90;;;;;;;11.73;100.00;101552.05;105651;1257;60822;-72
2023/09/19 04:52:55;;;;;;;45.30;28.30;;;;;;;12.06;100.00;101560.22;105764;1251;60492;-73
2023/09/19 04:55:23;;;;;;;42.20;26.80;;;;;;;12.48;100.00;101558.61;105703;1256;74614;-73
2023/09/19 04:57:50;;;;;;;35.70;24.60;;;;;;;12.96;100.00;101558.99;105741;1251;63800;-72
2023/09/19 05:00:23;;;;;;;39.00;22.70;;;;;;;13.51;100.00;101558.56;105622;1251;72727;-73
2023/09/19 05:02:51;;;;;;;33.90;23.60;;;;;;;14.20;100.00;101561.74;105768;1255;60582;-71
2023/09/19 05:05:19;;;;;;;33.80;22.50;;;;;;;14.92;100.00;101559.95;105706;1256;60364;-71
2023/09/19 05:07:46;;;;;;;34.60;22.00;;;;;;;15.66;100.00;101561.03;105609;1257;73103;-74
2023/09/19 05:10:14;;;;;;;30.20;19.60;;;;;;;16.37;100.00;101567.34;105617;1251;61993;-74
2023/09/19 05:12:46;;;;;;;39.70;21.20;;;;;;;16.96;100.00;101569.59;105651;1256;72945;-72
2023/09/19 05:15:17;;;;;;;28.60;18.90;;;;;;;17.29;100.00;101568.83;105750;1254;63869;-71
2023/09/19 05:17:51;;;;;;;30.60;18.90;;;;;;;17.44;100.00;101569.14;105698;1251;60454;-70
2023/09/19 05:20:29;;;;;;;41.60;25.60;;;;;;;17.47;100.00;101571.36;105785;1251;73902;-70
2023/09/19 05:23:08;;;;;;;35.40;21.90;;;;;;;17.45;100.00;101572.20;105692;1256;62522;-72
2023/09/19 05:25:37;;;;;;;44.00;24.50;;;;;;;17.55;100.00;101573.95;105683;1251;71355;-72
2023/09/19 05:28:11;;;;;;;46.50;23.40;;;;;;;17.89;100.00;101576.39;105813;1253;60511;-73
2023/09/19 05:30:39;;;;;;;34.40;22.00;;;;;;;18.48;100.00;101579.17;105689;1251;60345;-73
2023/09/19 05:33:08;;;;;;;33.20;21.90;;;;;;;19.12;100.00;101579.75;105706;1257;72637;-72
2023/09/19 05:35:41;;;;;;;29.30;21.00;;;;;;;19.81;100.00;101574.10;105673;1257;64124;-73
2023/09/19 05:38:11;;;;;;;32.70;22.20;;;;;;;20.58;100.00;101578.52;105708;1257;72029;-75
2023/09/19 05:40:42;;;;;;;35.70;21.00;;;;;;;21.22;100.00;101577.32;105629;1257;60489;-73
2023/09/19 05:43:09;;;;;;;29.10;21.30;;;;;;;21.89;100.00;101579.27;105682;1252;60348;-73
2023/09/19 05:45:37;;;;;;;29.00;22.50;;;;;;;22.51;100.00;101581.84;105779;1251;72559;-73
2023/09/19 05:48:09;;;;;;;39.70;22.70;;;;;;;23.07;100.00;101579.48;105644;1257;63675;-74
2023/09/19 05:50:38;;;;;;;29.00;21.40;;;;;;;23.67;100.00;101580.41;105878;1253;71419;-73
2023/09/19 05:53:06;;;;;;;29.60;20.30;;;;;;;24.17;100.00;101575.88;105681;1257;60803;-73
2023/09/19 05:55:33;;;;;;;25.50;21.00;;;;;;;24.65;99.40;101579.66;105723;1258;60421;-70
2023/09/19 05:58:03;;;;;;;34.20;21.10;;;;;;;25.15;95.48;101575.00;105753;1258;76178;-73
2023/09/19 06:00:31;;;;;;;24.50;19.10;;;;;;;25.66;91.03;101575.92;105644;1257;63552;-74
2023/09/19 06:02:59;;;;;;;22.20;19.30;;;;;;;26.12;85.81;101574.80;105651;1251;72793;-75
2023/09/19 06:05:27;;;;;;;32.40;21.20;;;;;;;26.58;79.87;101569.77;105588;1251;60511;-74
2023/09/19 06:07:55;;;;;;;27.50;20.10;;;;;;;27.00;74.33;101568.48;105638;1256;60518;-73
2023/09/19 06:10:23;;;;;;;25.90;19.30;;;;;;;27.44;69.75;101570.23;105607;1251;72935;-71
2023/09/19 06:12:51;;;;;;;25.90;23.00;;;;;;;27.89;66.02;101560.77;105603;1257;64300;-75
2023/09/19 06:15:24;;;;;;;26.70;20.00;;;;;;;28.35;60.86;101560.52;105643;1252;73344;-74
2023/09/19 06:17:56;;;;;;;24.60;20.20;;;;;;;28.85;55.32;101554.56;105622;1254;60522;-72
2023/09/19 06:20:25;;;;;;;28.30;20.20;;;;;;;29.31;51.68;101555.34;105653;1251;60540;-73
2023/09/19 06:22:52;;;;;;;24.20;18.50;;;;;;;29.75;49.72;101553.23;105689;1251;73875;-72
2023/09/19 06:25:21;;;;;;;26.90;20.10;;;;;;;30.14;47.95;101552.54;105657;1256;62889;-75
2023/09/19 06:27:53;;;;;;;26.30;19.90;;;;;;;30.47;47.66;101553.36;105870;1258;71443;-72
2023/09/19 06:30:22;;;;;;;22.60;18.70;;;;;;;30.74;46.93;101554.27;105706;1259;61218;-72
2023/09/19 06:33:03;;;;;;;20.00;17.80;;;;;;;31.02;45.25;101552.09;105690;1256;60347;-74
2023/09/19 06:35:35;;;;;;;24.60;19.00;;;;;;;31.34;44.08;101557.27;105647;1257;72609;-73
2023/09/19 06:38:03;;;;;;;26.90;18.50;;;;;;;31.66;43.23;101554.47;105676;1251;63780;-71
2023/09/19 06:40:31;;;;;;;22.00;17.90;;;;;;;31.88;42.69;101553.08;105759;1259;71579;-74
2023/09/19 06:43:02;;;;;;;21.70;18.10;;;;;;;32.07;41.30;101552.41;105670;1251;60509;-72
2023/09/19 06:45:31;;;;;;;21.70;17.70;;;;;;;32.24;40.83;101552.38;105740;1251;60554;-73
2023/09/19 06:48:00;;;;;;;23.10;17.10;;;;;;;32.48;40.72;101555.93;105740;1251;72698;-73
2023/09/19 06:50:28;;;;;;;22.60;18.20;;;;;;;32.75;40.23;101558.00;105736;1252;62937;-74
2023/09/19 06:52:57;;;;;;;20.60;18.20;;;;;;;32.99;38.66;101559.42;105699;1251;72447;-75
2023/09/19 06:55:27;;;;;;;22.10;18.80;;;;;;;33.21;37.43;101553.13;105713;1254;60424;-73
2023/09/19 06:57:58;;;;;;;27.60;19.70;;;;;;;33.41;36.68;101554.10;105784;1254;60396;-73
2023/09/19 07:00:28;;;;;;;22.50;18.80;;;;;;;33.58;35.86;101554.77;105695;1251;75793;-73
2023/09/19 07:03:00;;;;;;;24.90;19.50;;;;;;;33.54;34.69;101555.05;105798;1251;63914;-72
2023/09/19 07:05:28;;;;;;;22.50;18.40;;;;;;;33.29;34.13;101550.30;105735;1254;71561;-75
2023/09/19 07:07:58;;;;;;;24.60;18.40;;;;;;;33.03;34.39;101547.73;105645;1257;60486;-73
2023/09/19 07:10:28;;;;;;;21.80;18.80;;;;;;;32.88;34.53;101547.23;105729;1251;61110;-74
2023/09/19 07:13:00;;;;;;;25.90;18.60;;;;;;;32.86;34.79;101546.25;105781;1257;72583;-74
2023/09/19 07:15:27;;;;;;;25.30;18.50;;;;;;;32.83;34.70;101546.32;105727;1257;64321;-73
2023/09/19 07:17:56;;;;;;;23.50;19.40;;;;;;;32.75;34.73;101542.28;105682;1251;72480;-73
2023/09/19 07:20:29;;;;;;;25.00;18.90;;;;;;;32.80;34.72;101540.59;105679;1258;60632;-73
2023/09/19 07:22:59;;;;;;;25.50;20.10;;;;;;;33.01;34.65;101539.89;105733;1257;60396;-75
2023/09/19 07:25:27;;;;;;;21.20;17.40;;;;;;;33.30;34.12;101538.00;105629;1254;74079;-75
2023/09/19 07:27:56;;;;;;;22.30;17.10;;;;;;;33.57;33.26;101536.27;105626;1258;63563;-74
2023/09/19 07:30:23;;;;;;;21.90;16.60;;;;;;;33.76;33.03;101536.20;105706;1258;72735;-73
2023/09/19 07:32:51;;;;;;;27.10;17.00;;;;;;;33.96;33.09;101528.44;105671;1251;60511;-73
2023/09/19 07:35:21;;;;;;;23.30;18.80;;;;;;;34.15;32.67;101526.52;105714;1257;61484;-73
2023/09/19 07:37:49;;;;;;;22.40;18.40;;;;;;;34.35;32.33;101525.67;105548;1257;73831;-73
2023/09/19 07:40:19;;;;;;;27.00;19.10;;;;;;;34.55;31.83;101517.04;105635;1252;62504;-74
2023/09/19 07:42:46;;;;;;;26.70;19.30;;;;;;;34.64;31.42;101518.93;105770;1251;70657;-73
2023/09/19 07:45:16;;;;;;;27.50;20.00;;;;;;;34.53;31.29;101517.19;105755;1254;60514;-71
2023/09/19 07:48:06;;;;;;;25.50;20.50;;;;;;;34.51;31.40;101514.36;105827;1251;60733;-71
2023/09/19 07:50:36;;;;;;;25.50;21.50;;;;;;;34.50;31.36;101513.45;105709;1251;73102;-72
2023/09/19 07:53:04;;;;;;;31.10;22.10;;;;;;;34.59;31.47;101511.21;105646;1251;62458;-74
2023/09/19 07:55:33;;;;;;;35.60;23.00;;;;;;;34.75;31.41;101508.12;105713;1256;72143;-76
2023/09/19 07:58:04;;;;;;;33.50;23.50;;;;;;;34.84;31.36;101506.34;105757;1254;60493;-72
2023/09/19 08:00:34;;;;;;;34.10;27.10;;;;;;;34.84;31.41;101505.75;105631;1251;60529;-72
2023/09/19 08:03:04;;;;;;;40.90;31.20;;;;;;;34.94;31.66;101497.73;105864;1257;72569;-77
2023/09/19 08:05:44;;;;;;;40.70;32.90;;;;;;;35.03;31.40;101493.48;105741;1251;62512;-71
2023/09/19 08:08:14;;;;;;;50.90;35.30;;;;;;;35.01;31.22;101497.73;105690;1254;71948;-71
2023/09/19 08:10:43;;;;;;;50.80;34.50;;;;;;;34.99;31.26;101491.18;105683;1257;62485;-72
2023/09/19 08:13:14;;;;;;;42.50;33.90;;;;;;;35.05;31.62;101488.20;105679;1251;60345;-76
2023/09/19 08:15:45;;;;;;;39.80;28.80;;;;;;;35.11;32.05;101488.91;105665;1257;74037;-71
2023/09/19 08:18:15;;;;;;;32.40;25.50;;;;;;;35.22;31.76;101486.40;105623;1251;62708;-74
2023/09/19 08:20:48;;;;;;;34.00;25.60;;;;;;;35.35;31.50;101480.60;105633;1257;70520;-72
2023/09/19 08:23:17;;;;;;;35.40;22.80;;;;;;;35.35;31.18;101483.49;105655;1257;60477;-72
2023/09/19 08:25:45;;;;;;;28.90;20.60;;;;;;;35.31;31.45;101477.89;105732;1257;60371;-73
2023/09/19 08:28:17;;;;;;;32.90;19.80;;;;;;;35.47;31.15;101474.71;105648;1251;72570;-75
2023/09/19 08:30:45;;;;;;;28.20;19.70;;;;;;;35.66;31.10;101469.11;105864;1251;64634;-72
2023/09/19 08:33:15;;;;;;;25.50;18.20;;;;;;;35.84;30.71;101468.42;105770;1254;71501;-73
2023/09/19 08:35:43;;;;;;;26.60;18.40;;;;;;;35.97;30.59;101460.49;105613;1253;60482;-73
2023/09/19 08:38:11;;;;;;;25.70;16.90;;;;;;;36.11;30.20;101458.40;105720;1252;60457;-74
2023/09/19 08:40:41;;;;;;;22.60;16.10;;;;;;;36.24;29.93;101460.84;105664;1257;73778;-72
2023/09/19 08:43:08;;;;;;;25.50;14.00;;;;;;;36.40;29.78;101455.82;105629;1252;64981;-72
2023/09/19 08:45:37;;;;;;;16.70;13.90;;;;;;;36.53;29.08;101454.02;105671;1251;64360;-74
2023/09/19 08:48:24;;;;;;;19.70;12.60;;;;;;;36.55;28.95;101454.23;105566;1251;60873;-74
2023/09/19 08:51:10;;;;;;;16.70;10.60;;;;;;;36.61;28.72;101449.09;105941;1251;60550;-72
2023/09/19 08:53:54;;;;;;;21.20;11.50;;;;;;;36.76;28.13;101444.02;105699;1251;73436;-74
2023/09/19 08:56:22;;;;;;;16.00;10.50;;;;;;;36.84;27.16;101440.50;105644;1251;60527;-78
2023/09/19 08:58:59;;;;;;;20.60;10.40;;;;;;;36.97;26.65;101439.17;105599;1261;66073;-73
2023/09/19 09:01:32;;;;;;;15.60;10.80;;;;;;;37.09;26.55;101437.70;105759;1253;60422;-75
2023/09/19 09:04:01;;;;;;;14.60;9.10;;;;;;;37.18;26.32;101437.83;105777;1256;60492;-73
2023/09/19 09:06:29;;;;;;;11.30;9.30;;;;;;;37.23;26.14;101429.17;105589;1256;65043;-74
2023/09/19 09:08:57;;;;;;;7.30;6.00;;;;;;;37.34;26.04;101431.07;105675;1257;60537;-74
2023/09/19 09:11:24;;;;;;;11.90;8.30;;;;;;;37.47;25.06;101432.42;105666;1253;62657;-75
2023/09/19 09:13:52;;;;;;;14.30;8.30;;;;;;;37.60;25.06;101427.64;105657;1256;60449;-73
2023/09/19 09:16:20;;;;;;;10.20;6.00;;;;;;;37.74;25.16;101421.63;105515;1254;60356;-71
2023/09/19 09:18:52;;;;;;;6.50;5.50;;;;;;;37.92;23.82;101426.46;105723;1256;65033;-73
2023/09/19 09:21:21;;;;;;;6.70;4.50;;;;;;;37.96;21.38;101419.65;105565;1253;60579;-76
2023/09/19 09:23:52;;;;;;;4.80;4.40;;;;;;;37.97;21.11;101415.23;105948;1256;62531;-78
2023/09/19 09:26:43;;;;;;;5.20;4.40;;;;;;;38.16;21.14;101412.17;105712;1257;60362;-75
2023/09/19 09:29:10;;;;;;;4.70;4.30;;;;;;;38.34;20.44;101408.53;105566;1254;60520;-74
2023/09/19 09:31:38;;;;;;;5.00;4.50;;;;;;;38.43;20.13;101413.48;105641;1251;65040;-74
2023/09/19 09:34:06;;;;;;;6.10;4.80;;;;;;;38.37;19.40;101408.44;105533;1251;62357;-74
2023/09/19 09:36:36;;;;;;;10.60;4.10;;;;;;;38.24;19.60;101407.38;105583;1258;64646;-75
2023/09/19 09:39:15;;;;;;;7.00;4.90;;;;;;;38.10;19.55;101411.67;105894;1256;60536;-75
2023/09/19 09:41:44;;;;;;;9.00;4.30;;;;;;;38.07;19.85;101405.12;105825;1257;60450;-74
2023/09/19 09:44:18;;;;;;;4.50;4.00;;;;;;;38.19;20.15;101403.65;105667;1251;63783;-75
2023/09/19 09:49:27;;;;;;;5.50;4.60;;;;;;;38.53;20.32;101398.59;105701;1253;64885;-75
2023/09/19 09:52:05;;;;;;;6.90;5.00;;;;;;;38.69;19.93;101398.18;105764;1251;60549;-74
2023/09/19 09:54:38;;;;;;;5.00;4.60;;;;;;;38.84;19.97;101400.33;105648;1257;61462;-74
2023/09/19 09:57:13;;;;;;;12.00;5.40;;;;;;;38.90;19.63;101396.86;105631;1251;67486;-75
2023/09/19 09:59:55;;;;;;;6.90;5.10;;;;;;;38.93;20.52;101392.86;105715;1252;63393;-76
2023/09/19 10:02:29;;;;;;;4.90;4.50;;;;;;;38.99;19.81;101390.70;105754;1251;65162;-77
2023/09/19 10:05:14;;;;;;;5.10;4.60;;;;;;;39.08;19.65;101389.66;105662;1257;60442;-77
2023/09/19 10:07:49;;;;;;;6.40;4.20;;;;;;;39.12;19.22;101390.30;105667;1257;60400;-74
2023/09/19 10:10:43;;;;;;;8.90;4.70;;;;;;;39.11;19.25;101389.73;105652;1258;75899;-80
2023/09/19 10:13:21;;;;;;;5.90;4.20;;;;;;;39.12;18.97;101381.90;105676;1257;60416;-74
2023/09/19 10:15:54;;;;;;;5.60;4.10;;;;;;;39.16;18.75;101376.52;105607;1257;72240;-75
2023/09/19 10:18:24;;;;;;;8.10;4.00;;;;;;;39.20;19.56;101372.67;105616;1257;60548;-75
2023/09/19 10:20:51;;;;;;;5.90;4.40;;;;;;;39.20;19.02;101367.29;105821;1256;60578;-77
2023/09/19 10:23:22;;;;;;;6.20;4.50;;;;;;;39.02;18.67;101366.79;105719;1251;63721;-77
2023/09/19 10:25:50;;;;;;;4.70;4.30;;;;;;;38.76;18.55;101360.95;105736;1256;60540;-73
2023/09/19 10:28:21;;;;;;;8.00;4.50;;;;;;;38.55;19.31;101358.86;105627;1253;66658;-78
2023/09/19 10:30:51;;;;;;;6.30;5.50;;;;;;;38.51;19.24;101358.99;105749;1257;60617;-77
2023/09/19 10:33:26;;;;;;;7.30;4.50;;;;;;;38.59;18.67;101360.36;105745;1257;60429;-76
2023/09/19 10:35:55;;;;;;;5.70;4.60;;;;;;;38.60;18.61;101355.99;105759;1257;63984;-76
2023/09/19 10:38:24;;;;;;;6.70;5.50;;;;;;;38.55;18.78;101356.73;105638;1251;60527;-74
2023/09/19 10:40:55;;;;;;;9.60;5.80;;;;;;;38.54;18.78;101357.59;105735;1251;66599;-75
2023/09/19 10:43:26;;;;;;;6.90;4.60;;;;;;;38.46;18.80;101354.42;105818;1257;60550;-75
2023/09/19 10:45:54;;;;;;;5.40;4.90;;;;;;;38.35;18.95;101349.52;105767;1251;61912;-76
2023/09/19 10:48:25;;;;;;;9.60;4.40;;;;;;;38.26;18.93;101350.63;105460;1260;72249;-74
2023/09/19 10:51:09;;;;;;;5.10;4.60;;;;;;;38.13;18.58;101349.91;105798;1251;60458;-75
2023/09/19 10:53:55;;;;;;;5.00;4.60;;;;;;;37.88;18.82;101348.36;105711;1257;65801;-76
2023/09/19 10:56:45;;;;;;;6.80;5.00;;;;;;;37.60;19.58;101347.27;105809;1254;60534;-78
2023/09/19 10:59:18;;;;;;;7.00;4.30;;;;;;;37.38;19.69;101338.04;105868;1253;60520;-75
2023/09/19 11:01:53;;;;;;;5.40;4.90;;;;;;;37.24;19.59;101334.46;105832;1254;65077;-77
2023/09/19 11:04:35;;;;;;;6.80;5.10;;;;;;;37.21;20.23;101328.57;105832;1254;60460;-77
2023/09/19 11:07:12;;;;;;;5.40;4.90;;;;;;;37.23;19.99;101332.33;105893;1253;64860;-74
2023/09/19 11:09:45;;;;;;;5.60;5.00;;;;;;;37.20;19.93;101327.46;105934;1257;60434;-74
2023/09/19 11:12:45;;;;;;;6.00;4.50;;;;;;;37.10;20.64;101327.00;105771;1253;62071;-76
2023/09/19 11:15:51;;;;;;;5.90;5.40;;;;;;;36.93;20.18;101322.34;105760;1257;65005;-77
2023/09/19 11:18:41;;;;;;;4.80;4.50;;;;;;;36.70;20.61;101325.23;105936;1256;60636;-76
2023/09/19 11:21:31;;;;;;;6.70;5.40;;;;;;;36.38;21.19;101317.31;105854;1257;65878;-76